sensor_id;sensor_type;location;lat;lon;timestamp;pressure;altitude;pressure_sealevel;temperature;humidity
11643;BME280;5877;50.930;6.918;2023-02-28T00:04:49;102294.41;;;-0.09;60.79
11643;BME280;5877;50.930;6.918;2023-02-28T00:09:44;102349.03;;;0.10;62.20
11643;BME280;5877;50.930;6.918;2023-02-28T00:14:37;102353.16;;;0.13;62.21
11643;BME280;5877;50.930;6.918;2023-02-28T00:19:29;101743.28;;;-3.53;61.44
11643;BME280;5877;50.930;6.918;2023-02-28T00:24:20;102245.00;;;-0.55;61.86
11643;BME280;5877;50.930;6.918;2023-02-28T00:29:12;102267.66;;;-0.34;61.26
11643;BME280;5877;50.930;6.918;2023-02-28T00:34:04;102349.97;;;0.22;61.67
11643;BME280;5877;50.930;6.918;2023-02-28T00:38:56;102258.09;;;-0.58;62.26
11643;BME280;5877;50.930;6.918;2023-02-28T00:43:52;102158.66;;;-1.29;61.42
11643;BME280;5877;50.930;6.918;2023-02-28T00:48:43;102356.16;;;-0.06;61.66
11643;BME280;5877;50.930;6.918;2023-02-28T00:53:35;102166.28;;;-1.27;61.41
11643;BME280;5877;50.930;6.918;2023-02-28T00:58:28;102259.59;;;-0.69;61.56
11643;BME280;5877;50.930;6.918;2023-02-28T01:03:21;102354.41;;;-0.06;61.31
11643;BME280;5877;50.930;6.918;2023-02-28T01:08:14;102207.31;;;-0.98;62.00
11643;BME280;5877;50.930;6.918;2023-02-28T01:13:08;102356.25;;;-0.08;61.82
11643;BME280;5877;50.930;6.918;2023-02-28T01:18:01;102098.25;;;-1.65;61.76
11643;BME280;5877;50.930;6.918;2023-02-28T01:22:56;102112.75;;;-1.49;62.53
11643;BME280;5877;50.930;6.918;2023-02-28T01:27:49;102001.00;;;-2.28;62.41
11643;BME280;5877;50.930;6.918;2023-02-28T01:32:43;102138.53;;;-1.37;62.17
11643;BME280;5877;50.930;6.918;2023-02-28T01:37:35;102258.69;;;-0.68;62.00
11643;BME280;5877;50.930;6.918;2023-02-28T01:42:27;102347.03;;;-0.24;62.63
11643;BME280;5877;50.930;6.918;2023-02-28T01:47:22;102105.19;;;-1.79;63.13
11643;BME280;5877;50.930;6.918;2023-02-28T01:52:15;102107.47;;;-1.75;62.98
11643;BME280;5877;50.930;6.918;2023-02-28T01:57:14;102243.59;;;-1.01;62.50
11643;BME280;5877;50.930;6.918;2023-02-28T02:02:08;102344.69;;;-0.42;62.64
11643;BME280;5877;50.930;6.918;2023-02-28T02:07:01;102279.97;;;-0.78;63.06
11643;BME280;5877;50.930;6.918;2023-02-28T02:11:55;102081.94;;;-1.92;62.95
11643;BME280;5877;50.930;6.918;2023-02-28T02:27:24;102226.34;;;-0.86;61.80
11643;BME280;5877;50.930;6.918;2023-02-28T02:32:49;102323.44;;;-0.45;62.00
11643;BME280;5877;50.930;6.918;2023-02-28T02:38:08;102237.00;;;-1.19;61.93
11643;BME280;5877;50.930;6.918;2023-02-28T02:43:09;102190.78;;;-1.35;61.19
11643;BME280;5877;50.930;6.918;2023-02-28T02:48:08;102325.66;;;-0.53;61.41
11643;BME280;5877;50.930;6.918;2023-02-28T02:53:02;102126.22;;;-1.73;59.67
11643;BME280;5877;50.930;6.918;2023-02-28T02:58:03;102268.88;;;-0.93;59.42
11643;BME280;5877;50.930;6.918;2023-02-28T03:02:57;102271.63;;;-0.82;58.46
11643;BME280;5877;50.930;6.918;2023-02-28T03:07:49;102316.91;;;-0.51;59.04
11643;BME280;5877;50.930;6.918;2023-02-28T03:12:49;102050.56;;;-2.25;58.57
11643;BME280;5877;50.930;6.918;2023-02-28T03:23:16;102315.75;;;-0.59;58.61
11643;BME280;5877;50.930;6.918;2023-02-28T03:28:19;102146.69;;;-1.57;57.68
11643;BME280;5877;50.930;6.918;2023-02-28T03:33:18;102304.78;;;-0.63;58.41
11643;BME280;5877;50.930;6.918;2023-02-28T03:38:19;101912.22;;;-3.17;58.90
11643;BME280;5877;50.930;6.918;2023-02-28T03:43:18;102280.63;;;-0.75;57.95
11643;BME280;5877;50.930;6.918;2023-02-28T03:48:21;102131.44;;;-1.60;57.30
11643;BME280;5877;50.930;6.918;2023-02-28T03:58:11;102298.56;;;-0.73;56.95
11643;BME280;5877;50.930;6.918;2023-02-28T04:03:06;102022.72;;;-2.60;57.44
11643;BME280;5877;50.930;6.918;2023-02-28T04:08:06;102313.34;;;-0.89;58.49
11643;BME280;5877;50.930;6.918;2023-02-28T04:12:58;102192.69;;;-1.79;59.39
11643;BME280;5877;50.930;6.918;2023-02-28T04:17:50;102103.56;;;-2.37;61.11
11643;BME280;5877;50.930;6.918;2023-02-28T04:22:42;102026.34;;;-2.92;61.46
11643;BME280;5877;50.930;6.918;2023-02-28T04:27:33;102297.56;;;-1.40;62.33
11643;BME280;5877;50.930;6.918;2023-02-28T04:32:26;102319.53;;;-1.20;63.25
11643;BME280;5877;50.930;6.918;2023-02-28T04:37:18;102318.91;;;-1.24;63.28
11643;BME280;5877;50.930;6.918;2023-02-28T04:42:11;102265.28;;;-1.60;62.69
11643;BME280;5877;50.930;6.918;2023-02-28T04:47:03;102199.94;;;-2.00;62.81
11643;BME280;5877;50.930;6.918;2023-02-28T04:51:55;102218.88;;;-1.87;62.68
11643;BME280;5877;50.930;6.918;2023-02-28T04:56:47;102328.00;;;-1.04;62.47
11643;BME280;5877;50.930;6.918;2023-02-28T05:01:46;102131.50;;;-2.17;60.77
11643;BME280;5877;50.930;6.918;2023-02-28T05:06:38;102269.25;;;-1.40;61.16
11643;BME280;5877;50.930;6.918;2023-02-28T05:11:32;102298.59;;;-1.43;61.09
11643;BME280;5877;50.930;6.918;2023-02-28T05:16:27;102203.31;;;-2.28;61.83
11643;BME280;5877;50.930;6.918;2023-02-28T05:21:25;102198.00;;;-2.11;61.53
11643;BME280;5877;50.930;6.918;2023-02-28T05:26:17;102310.72;;;-1.45;61.61
11643;BME280;5877;50.930;6.918;2023-02-28T05:31:13;102339.50;;;-1.24;61.51
11643;BME280;5877;50.930;6.918;2023-02-28T05:36:05;102115.22;;;-2.60;60.21
11643;BME280;5877;50.930;6.918;2023-02-28T05:40:57;102114.09;;;-2.70;60.71
11643;BME280;5877;50.930;6.918;2023-02-28T05:45:50;102289.66;;;-1.66;61.30
11643;BME280;5877;50.930;6.918;2023-02-28T05:50:42;102353.94;;;-1.21;60.06
11643;BME280;5877;50.930;6.918;2023-02-28T05:55:36;102351.19;;;-1.18;59.54
11643;BME280;5877;50.930;6.918;2023-02-28T06:00:29;102351.28;;;-1.20;58.40
11643;BME280;5877;50.930;6.918;2023-02-28T06:05:22;101877.75;;;-3.85;57.52
11643;BME280;5877;50.930;6.918;2023-02-28T06:10:16;101554.25;;;-5.83;57.28
11643;BME280;5877;50.930;6.918;2023-02-28T06:15:13;101910.78;;;-3.65;57.43
11643;BME280;5877;50.930;6.918;2023-02-28T06:20:06;102365.16;;;-0.94;57.27
11643;BME280;5877;50.930;6.918;2023-02-28T06:24:59;102203.25;;;-1.84;56.86
11643;BME280;5877;50.930;6.918;2023-02-28T06:29:54;101893.09;;;-3.70;56.56
11643;BME280;5877;50.930;6.918;2023-02-28T06:34:48;101838.81;;;-4.22;57.15
11643;BME280;5877;50.930;6.918;2023-02-28T06:39:40;102363.19;;;-0.62;55.90
11643;BME280;5877;50.930;6.918;2023-02-28T06:44:33;102003.41;;;-2.96;55.88
11643;BME280;5877;50.930;6.918;2023-02-28T06:49:33;102349.88;;;-0.83;55.73
11643;BME280;5877;50.930;6.918;2023-02-28T06:54:25;102395.41;;;-0.69;55.50
11643;BME280;5877;50.930;6.918;2023-02-28T06:59:18;102382.44;;;-0.68;55.74
11643;BME280;5877;50.930;6.918;2023-02-28T07:04:13;101699.44;;;-5.25;55.50
11643;BME280;5877;50.930;6.918;2023-02-28T07:09:06;101852.81;;;-3.98;54.84
11643;BME280;5877;50.930;6.918;2023-02-28T07:13:58;101527.50;;;-6.07;54.81
11643;BME280;5877;50.930;6.918;2023-02-28T07:18:54;101587.00;;;-5.58;54.98
11643;BME280;5877;50.930;6.918;2023-02-28T07:23:46;102036.44;;;-2.89;54.16
11643;BME280;5877;50.930;6.918;2023-02-28T07:28:40;101834.03;;;-1.15;46.78
11643;BME280;5877;50.930;6.918;2023-02-28T07:33:34;102327.63;;;3.49;42.35
11643;BME280;5877;50.930;6.918;2023-02-28T07:38:26;102062.78;;;2.88;40.30
11643;BME280;5877;50.930;6.918;2023-02-28T07:43:17;102396.31;;;5.02;39.33
11643;BME280;5877;50.930;6.918;2023-02-28T07:48:09;102322.56;;;5.70;36.66
11643;BME280;5877;50.930;6.918;2023-02-28T07:53:02;102406.50;;;7.15;35.16
11643;BME280;5877;50.930;6.918;2023-02-28T07:57:54;102233.81;;;5.81;34.45
11643;BME280;5877;50.930;6.918;2023-02-28T08:02:46;102303.06;;;7.32;33.14
11643;BME280;5877;50.930;6.918;2023-02-28T08:07:37;102392.88;;;6.94;33.87
11643;BME280;5877;50.930;6.918;2023-02-28T08:12:29;102166.50;;;6.24;32.76
11643;BME280;5877;50.930;6.918;2023-02-28T08:17:21;101837.66;;;5.12;30.53
11643;BME280;5877;50.930;6.918;2023-02-28T08:22:13;102275.94;;;8.21;30.20
11643;BME280;5877;50.930;6.918;2023-02-28T08:27:05;102252.50;;;8.37;29.60
11643;BME280;5877;50.930;6.918;2023-02-28T08:31:56;102315.84;;;8.83;28.81
11643;BME280;5877;50.930;6.918;2023-02-28T08:36:51;102271.22;;;8.50;28.56
11643;BME280;5877;50.930;6.918;2023-02-28T08:41:44;102176.94;;;7.22;28.79
11643;BME280;5877;50.930;6.918;2023-02-28T08:46:39;102101.84;;;6.98;28.99
11643;BME280;5877;50.930;6.918;2023-02-28T08:51:31;102379.00;;;8.10;28.79
11643;BME280;5877;50.930;6.918;2023-02-28T08:56:24;102300.25;;;6.98;29.15
11643;BME280;5877;50.930;6.918;2023-02-28T09:01:25;102409.50;;;7.21;30.04
11643;BME280;5877;50.930;6.918;2023-02-28T09:06:20;102352.53;;;7.52;29.16
11643;BME280;5877;50.930;6.918;2023-02-28T09:11:13;102283.78;;;7.69;27.76
11643;BME280;5877;50.930;6.918;2023-02-28T09:16:07;102303.41;;;7.20;28.51
11643;BME280;5877;50.930;6.918;2023-02-28T09:20:59;102244.09;;;6.02;29.01
11643;BME280;5877;50.930;6.918;2023-02-28T09:25:54;102247.84;;;5.42;29.79
11643;BME280;5877;50.930;6.918;2023-02-28T09:30:48;102392.97;;;6.65;29.52
11643;BME280;5877;50.930;6.918;2023-02-28T09:35:40;102268.69;;;6.37;29.07
11643;BME280;5877;50.930;6.918;2023-02-28T09:40:37;102349.94;;;7.06;29.22
11643;BME280;5877;50.930;6.918;2023-02-28T09:45:39;102131.59;;;4.75;29.83
11643;BME280;5877;50.930;6.918;2023-02-28T09:50:38;101795.88;;;1.31;31.93
11643;BME280;5877;50.930;6.918;2023-02-28T09:55:39;102241.75;;;4.24;32.36
11643;BME280;5877;50.930;6.918;2023-02-28T10:00:39;101929.25;;;2.31;31.82
11643;BME280;5877;50.930;6.918;2023-02-28T10:05:44;102197.25;;;4.17;32.28
11643;BME280;5877;50.930;6.918;2023-02-28T10:10:42;102133.75;;;3.70;32.50
11643;BME280;5877;50.930;6.918;2023-02-28T10:15:35;102294.75;;;4.73;32.97
11643;BME280;5877;50.930;6.918;2023-02-28T10:20:28;102395.44;;;4.92;33.08
11643;BME280;5877;50.930;6.918;2023-02-28T10:25:25;102268.44;;;3.64;33.80
11643;BME280;5877;50.930;6.918;2023-02-28T10:30:17;102392.47;;;4.24;34.32
11643;BME280;5877;50.930;6.918;2023-02-28T10:40:01;102234.56;;;3.44;34.31
11643;BME280;5877;50.930;6.918;2023-02-28T10:45:14;101838.38;;;0.95;34.58
11643;BME280;5877;50.930;6.918;2023-02-28T10:50:27;102106.44;;;2.51;35.35
11643;BME280;5877;50.930;6.918;2023-02-28T10:55:25;102358.44;;;4.06;34.62
11643;BME280;5877;50.930;6.918;2023-02-28T11:00:20;102254.69;;;3.52;35.10
11643;BME280;5877;50.930;6.918;2023-02-28T11:05:34;102285.91;;;3.62;35.18
11643;BME280;5877;50.930;6.918;2023-02-28T11:10:30;102351.84;;;4.02;35.98
11643;BME280;5877;50.930;6.918;2023-02-28T11:15:30;102261.41;;;3.54;35.65
11643;BME280;5877;50.930;6.918;2023-02-28T11:20:26;102342.56;;;4.51;35.04
11643;BME280;5877;50.930;6.918;2023-02-28T11:30:29;102336.06;;;5.06;34.39
11643;BME280;5877;50.930;6.918;2023-02-28T11:35:29;102252.91;;;4.85;33.55
11643;BME280;5877;50.930;6.918;2023-02-28T11:40:30;102212.63;;;4.70;33.97
11643;BME280;5877;50.930;6.918;2023-02-28T11:45:46;102333.19;;;5.09;34.46
11643;BME280;5877;50.930;6.918;2023-02-28T11:55:48;102345.00;;;5.42;34.49
11643;BME280;5877;50.930;6.918;2023-02-28T12:06:27;102198.06;;;4.48;34.26
11643;BME280;5877;50.930;6.918;2023-02-28T12:11:48;102339.28;;;5.68;33.26
11643;BME280;5877;50.930;6.918;2023-02-28T12:27:14;102230.72;;;5.30;34.66
11643;BME280;5877;50.930;6.918;2023-02-28T12:32:30;102239.34;;;5.69;32.30
11643;BME280;5877;50.930;6.918;2023-02-28T12:37:43;102304.44;;;5.69;33.05
11643;BME280;5877;50.930;6.918;2023-02-28T12:42:52;102194.88;;;5.14;33.67
11643;BME280;5877;50.930;6.918;2023-02-28T12:47:54;102056.44;;;4.62;32.68
11643;BME280;5877;50.930;6.918;2023-02-28T13:08:46;102275.25;;;5.94;32.64
11643;BME280;5877;50.930;6.918;2023-02-28T13:13:44;102267.72;;;5.91;32.94
11643;BME280;5877;50.930;6.918;2023-02-28T13:29:04;102268.53;;;5.92;34.22
11643;BME280;5877;50.930;6.918;2023-02-28T13:34:14;102257.06;;;6.22;34.13
11643;BME280;5877;50.930;6.918;2023-02-28T13:44:26;102102.97;;;4.84;33.49
11643;BME280;5877;50.930;6.918;2023-02-28T13:49:29;102223.31;;;5.25;34.95
11643;BME280;5877;50.930;6.918;2023-02-28T13:59:57;102243.22;;;6.21;33.14
11643;BME280;5877;50.930;6.918;2023-02-28T14:04:49;102239.47;;;6.33;32.79
11643;BME280;5877;50.930;6.918;2023-02-28T14:10:06;102231.25;;;6.28;32.64
11643;BME280;5877;50.930;6.918;2023-02-28T14:15:00;102047.53;;;4.65;33.97
11643;BME280;5877;50.930;6.918;2023-02-28T14:19:52;101885.88;;;3.74;33.58
11643;BME280;5877;50.930;6.918;2023-02-28T14:25:11;102120.06;;;5.16;33.46
11643;BME280;5877;50.930;6.918;2023-02-28T14:36:09;102210.38;;;5.91;33.61
11643;BME280;5877;50.930;6.918;2023-02-28T14:41:06;102080.09;;;5.07;34.54
11643;BME280;5877;50.930;6.918;2023-02-28T14:46:05;101885.72;;;3.76;34.22
11643;BME280;5877;50.930;6.918;2023-02-28T14:50:59;102138.81;;;5.76;33.55
11643;BME280;5877;50.930;6.918;2023-02-28T14:55:52;102125.47;;;5.42;34.02
11643;BME280;5877;50.930;6.918;2023-02-28T15:00:50;102105.81;;;5.20;34.74
11643;BME280;5877;50.930;6.918;2023-02-28T15:05:51;102206.34;;;6.06;33.67
11643;BME280;5877;50.930;6.918;2023-02-28T15:10:50;102010.53;;;5.00;33.60
11643;BME280;5877;50.930;6.918;2023-02-28T15:15:47;102109.53;;;5.54;33.25
11643;BME280;5877;50.930;6.918;2023-02-28T15:20:53;101903.63;;;4.17;33.56
11643;BME280;5877;50.930;6.918;2023-02-28T15:25:46;102190.19;;;6.03;33.24
11643;BME280;5877;50.930;6.918;2023-02-28T15:30:38;101988.69;;;4.54;33.89
11643;BME280;5877;50.930;6.918;2023-02-28T15:35:32;102190.06;;;5.85;33.95
11643;BME280;5877;50.930;6.918;2023-02-28T15:40:30;102189.72;;;5.61;34.26
11643;BME280;5877;50.930;6.918;2023-02-28T15:45:37;102195.72;;;5.71;35.14
11643;BME280;5877;50.930;6.918;2023-02-28T15:50:34;102188.63;;;5.63;34.87
11643;BME280;5877;50.930;6.918;2023-02-28T15:55:27;102192.19;;;5.62;35.12
11643;BME280;5877;50.930;6.918;2023-02-28T16:00:23;102198.63;;;5.58;35.09
11643;BME280;5877;50.930;6.918;2023-02-28T16:10:24;102065.88;;;4.53;36.03
11643;BME280;5877;50.930;6.918;2023-02-28T16:15:30;102207.56;;;5.36;36.01
11643;BME280;5877;50.930;6.918;2023-02-28T16:20:30;102031.50;;;4.21;36.55
11643;BME280;5877;50.930;6.918;2023-02-28T16:25:42;102126.09;;;4.68;35.97
11643;BME280;5877;50.930;6.918;2023-02-28T16:30:35;101873.94;;;2.93;37.16
11643;BME280;5877;50.930;6.918;2023-02-28T16:35:26;101970.00;;;3.52;37.46
11643;BME280;5877;50.930;6.918;2023-02-28T16:40:21;102194.97;;;4.83;36.90
11643;BME280;5877;50.930;6.918;2023-02-28T16:45:23;102147.09;;;4.27;37.71
11643;BME280;5877;50.930;6.918;2023-02-28T16:50:19;102216.44;;;4.66;37.83
11643;BME280;5877;50.930;6.918;2023-02-28T16:55:11;102226.66;;;4.48;38.07
11643;BME280;5877;50.930;6.918;2023-02-28T17:00:04;102176.78;;;3.94;38.47
11643;BME280;5877;50.930;6.918;2023-02-28T17:04:57;102198.81;;;3.99;38.71
11643;BME280;5877;50.930;6.918;2023-02-28T17:09:49;102193.97;;;3.85;39.27
11643;BME280;5877;50.930;6.918;2023-02-28T17:14:41;102145.66;;;3.52;39.49
11643;BME280;5877;50.930;6.918;2023-02-28T17:19:33;102174.09;;;3.53;39.92
11643;BME280;5877;50.930;6.918;2023-02-28T17:24:27;102130.41;;;2.96;40.65
11643;BME280;5877;50.930;6.918;2023-02-28T17:29:22;102263.81;;;3.88;40.59
11643;BME280;5877;50.930;6.918;2023-02-28T17:34:14;102157.09;;;3.08;41.09
11643;BME280;5877;50.930;6.918;2023-02-28T17:39:14;102282.94;;;3.66;41.75
11643;BME280;5877;50.930;6.918;2023-02-28T17:44:06;102085.91;;;2.16;42.46
11643;BME280;5877;50.930;6.918;2023-02-28T17:48:58;102168.06;;;2.79;42.01
11643;BME280;5877;50.930;6.918;2023-02-28T17:53:50;102087.88;;;2.35;42.31
11643;BME280;5877;50.930;6.918;2023-02-28T17:58:42;102116.34;;;2.46;42.41
11643;BME280;5877;50.930;6.918;2023-02-28T18:03:35;102288.81;;;3.47;42.90
11643;BME280;5877;50.930;6.918;2023-02-28T18:08:27;102174.56;;;2.74;43.01
11643;BME280;5877;50.930;6.918;2023-02-28T18:13:19;101732.38;;;-0.04;44.24
11643;BME280;5877;50.930;6.918;2023-02-28T18:18:10;102264.16;;;3.10;45.27
11643;BME280;5877;50.930;6.918;2023-02-28T18:23:02;102209.94;;;2.64;46.39
11643;BME280;5877;50.930;6.918;2023-02-28T18:27:54;102076.66;;;1.69;47.18
11643;BME280;5877;50.930;6.918;2023-02-28T18:32:49;102296.50;;;2.94;47.98
11643;BME280;5877;50.930;6.918;2023-02-28T18:37:41;102137.13;;;1.79;48.73
11643;BME280;5877;50.930;6.918;2023-02-28T18:42:32;101958.47;;;0.56;49.66
11643;BME280;5877;50.930;6.918;2023-02-28T18:47:24;102100.94;;;1.33;49.87
11643;BME280;5877;50.930;6.918;2023-02-28T18:52:16;102245.84;;;1.90;50.67
11643;BME280;5877;50.930;6.918;2023-02-28T18:57:09;102313.03;;;2.38;51.31
11643;BME280;5877;50.930;6.918;2023-02-28T19:02:01;101797.59;;;-1.21;51.53
11643;BME280;5877;50.930;6.918;2023-02-28T19:06:53;102124.00;;;1.01;51.78
11643;BME280;5877;50.930;6.918;2023-02-28T19:11:44;102212.94;;;1.57;51.97
11643;BME280;5877;50.930;6.918;2023-02-28T19:16:36;102352.34;;;2.20;52.63
11643;BME280;5877;50.930;6.918;2023-02-28T19:21:28;102202.38;;;1.25;53.46
11643;BME280;5877;50.930;6.918;2023-02-28T19:26:22;102279.00;;;1.74;53.54
11643;BME280;5877;50.930;6.918;2023-02-28T19:31:22;102334.72;;;1.90;53.84
11643;BME280;5877;50.930;6.918;2023-02-28T19:36:15;102027.91;;;-0.11;53.91
11643;BME280;5877;50.930;6.918;2023-02-28T19:41:08;102232.44;;;1.15;53.93
11643;BME280;5877;50.930;6.918;2023-02-28T19:46:01;102346.81;;;1.90;54.08
11643;BME280;5877;50.930;6.918;2023-02-28T19:51:00;102343.63;;;1.86;53.48
11643;BME280;5877;50.930;6.918;2023-02-28T19:55:53;102090.31;;;0.30;53.41
11643;BME280;5877;50.930;6.918;2023-02-28T20:00:45;101798.44;;;-1.46;53.14
11643;BME280;5877;50.930;6.918;2023-02-28T20:05:37;102252.34;;;1.25;53.39
11643;BME280;5877;50.930;6.918;2023-02-28T20:10:29;102236.44;;;0.95;54.61
11643;BME280;5877;50.930;6.918;2023-02-28T20:15:21;102184.59;;;0.49;54.79
11643;BME280;5877;50.930;6.918;2023-02-28T20:20:13;102223.22;;;0.87;54.53
11643;BME280;5877;50.930;6.918;2023-02-28T20:25:06;102168.09;;;0.39;54.57
11643;BME280;5877;50.930;6.918;2023-02-28T20:29:58;102258.16;;;0.92;54.97
11643;BME280;5877;50.930;6.918;2023-02-28T20:34:51;101996.34;;;-0.77;54.60
11643;BME280;5877;50.930;6.918;2023-02-28T20:39:43;102149.41;;;0.22;54.84
11643;BME280;5877;50.930;6.918;2023-02-28T20:44:37;102143.66;;;0.19;54.52
11643;BME280;5877;50.930;6.918;2023-02-28T20:49:28;101889.78;;;-1.39;54.44
11643;BME280;5877;50.930;6.918;2023-02-28T20:54:21;102152.34;;;0.05;55.16
11643;BME280;5877;50.930;6.918;2023-02-28T20:59:12;102240.03;;;0.69;55.29
11643;BME280;5877;50.930;6.918;2023-02-28T21:04:05;102053.88;;;-0.51;55.15
11643;BME280;5877;50.930;6.918;2023-02-28T21:08:57;102332.56;;;1.13;55.93
11643;BME280;5877;50.930;6.918;2023-02-28T21:13:50;102339.50;;;1.12;55.56
11643;BME280;5877;50.930;6.918;2023-02-28T21:18:42;102270.00;;;0.71;55.48
11643;BME280;5877;50.930;6.918;2023-02-28T21:23:34;102157.94;;;-0.01;55.21
11643;BME280;5877;50.930;6.918;2023-02-28T21:28:26;102324.13;;;0.98;55.89
11643;BME280;5877;50.930;6.918;2023-02-28T21:33:18;102240.41;;;0.39;56.17
11643;BME280;5877;50.930;6.918;2023-02-28T21:38:10;102077.38;;;-0.55;56.13
11643;BME280;5877;50.930;6.918;2023-02-28T21:43:01;102152.50;;;-0.22;56.05
11643;BME280;5877;50.930;6.918;2023-02-28T21:47:53;102346.16;;;0.91;56.35
11643;BME280;5877;50.930;6.918;2023-02-28T21:52:46;102381.81;;;0.98;56.17
11643;BME280;5877;50.930;6.918;2023-02-28T21:57:38;102344.38;;;0.91;56.03
11643;BME280;5877;50.930;6.918;2023-02-28T22:02:30;102264.47;;;0.26;56.50
11643;BME280;5877;50.930;6.918;2023-02-28T22:07:22;102246.91;;;0.06;57.42
11643;BME280;5877;50.930;6.918;2023-02-28T22:12:14;102229.69;;;-0.06;57.06
11643;BME280;5877;50.930;6.918;2023-02-28T22:17:05;102273.47;;;0.21;57.74
11643;BME280;5877;50.930;6.918;2023-02-28T22:21:58;102351.75;;;0.72;58.19
11643;BME280;5877;50.930;6.918;2023-02-28T22:26:50;102073.44;;;-0.99;57.08
11643;BME280;5877;50.930;6.918;2023-02-28T22:31:42;102208.53;;;-0.24;57.34
11643;BME280;5877;50.930;6.918;2023-02-28T22:36:35;102102.84;;;-0.89;58.02
11643;BME280;5877;50.930;6.918;2023-02-28T22:41:27;102112.41;;;-0.91;58.74
11643;BME280;5877;50.930;6.918;2023-02-28T22:46:21;102345.47;;;0.51;59.33
11643;BME280;5877;50.930;6.918;2023-02-28T22:51:16;102342.47;;;0.57;58.76
11643;BME280;5877;50.930;6.918;2023-02-28T22:56:09;102235.47;;;-0.03;58.28
11643;BME280;5877;50.930;6.918;2023-02-28T23:01:10;102336.69;;;0.53;58.63
11643;BME280;5877;50.930;6.918;2023-02-28T23:06:14;102343.28;;;0.45;58.35
11643;BME280;5877;50.930;6.918;2023-02-28T23:11:06;102345.47;;;0.51;58.08
11643;BME280;5877;50.930;6.918;2023-02-28T23:15:58;102312.50;;;0.16;59.07
11643;BME280;5877;50.930;6.918;2023-02-28T23:20:51;102049.63;;;-1.42;58.43
11643;BME280;5877;50.930;6.918;2023-02-28T23:25:43;102292.38;;;-0.04;59.56
11643;BME280;5877;50.930;6.918;2023-02-28T23:30:36;101825.94;;;-3.05;60.22
11643;BME280;5877;50.930;6.918;2023-02-28T23:35:30;102035.25;;;-1.86;60.21
11643;BME280;5877;50.930;6.918;2023-02-28T23:40:22;102233.00;;;-0.69;60.17
11643;BME280;5877;50.930;6.918;2023-02-28T23:45:16;101890.69;;;-2.86;60.74
11643;BME280;5877;50.930;6.918;2023-02-28T23:50:08;102368.25;;;-0.07;61.03
11643;BME280;5877;50.930;6.918;2023-02-28T23:55:01;102346.03;;;-0.09;61.30
11643;BME280;5877;50.930;6.918;2023-02-28T23:59:52;102283.69;;;-0.55;61.59
